createdAt,value
2023-06-17T00:02:06.236Z,8.82
2023-06-17T00:04:33.080Z,9.60
2023-06-17T00:07:00.144Z,8.57
2023-06-17T00:09:26.897Z,9.52
2023-06-17T00:11:53.817Z,8.63
2023-06-17T00:14:21.982Z,9.10
2023-06-17T00:16:48.739Z,8.25
2023-06-17T00:19:17.042Z,8.25
2023-06-17T00:21:45.200Z,9.50
2023-06-17T00:24:14.966Z,9.13
2023-06-17T00:26:42.151Z,9.57
2023-06-17T00:29:09.176Z,9.65
2023-06-17T00:31:35.796Z,9.38
2023-06-17T00:34:02.577Z,8.52
2023-06-17T00:36:29.108Z,9.07
2023-06-17T00:38:55.918Z,8.65
2023-06-17T00:41:22.598Z,9.40
2023-06-17T00:43:49.215Z,9.20
2023-06-17T00:46:19.029Z,9.07
2023-06-17T00:48:45.748Z,8.83
2023-06-17T00:51:12.562Z,8.85
2023-06-17T00:53:39.049Z,9.32
2023-06-17T00:56:05.813Z,9.05
2023-06-17T00:58:32.345Z,9.18
2023-06-17T01:00:58.868Z,8.90
2023-06-17T01:03:26.147Z,8.95
2023-06-17T01:05:55.466Z,9.25
2023-06-17T01:08:36.151Z,8.45
2023-06-17T01:11:04.996Z,8.73
2023-06-17T01:13:32.683Z,9.03
2023-06-17T01:16:01.032Z,8.82
2023-06-17T01:18:28.921Z,8.43
2023-06-17T01:20:57.017Z,8.15
2023-06-17T01:23:27.977Z,9.52
2023-06-17T01:25:59.232Z,8.43
2023-06-17T01:28:25.818Z,8.50
2023-06-17T01:30:58.370Z,8.38
2023-06-17T01:33:25.472Z,8.07
2023-06-17T01:35:54.926Z,7.30
2023-06-17T01:38:26.463Z,7.83
2023-06-17T01:40:56.065Z,8.15
2023-06-17T01:43:23.192Z,8.20
2023-06-17T01:45:50.112Z,7.70
2023-06-17T01:48:16.834Z,7.47
2023-06-17T01:50:43.438Z,7.00
2023-06-17T01:53:09.929Z,7.93
2023-06-17T01:55:36.479Z,6.85
2023-06-17T01:58:03.052Z,7.70
2023-06-17T02:00:29.557Z,8.30
2023-06-17T02:02:56.429Z,7.80
2023-06-17T02:05:22.982Z,8.32
2023-06-17T02:07:49.500Z,6.88
2023-06-17T02:10:16.555Z,6.72
2023-06-17T02:12:43.207Z,7.05
2023-06-17T02:15:10.019Z,6.90
2023-06-17T02:17:36.870Z,6.90
2023-06-17T02:20:07.239Z,6.70
2023-06-17T02:22:33.821Z,6.78
2023-06-17T02:25:00.318Z,6.72
2023-06-17T02:27:26.915Z,6.83
2023-06-17T02:29:53.434Z,6.90
2023-06-17T02:32:19.974Z,6.50
2023-06-17T02:34:49.328Z,6.45
2023-06-17T02:37:15.974Z,6.80
2023-06-17T02:39:42.678Z,6.90
2023-06-17T02:42:09.602Z,6.28
2023-06-17T02:44:37.250Z,7.70
2023-06-17T02:47:04.270Z,8.10
2023-06-17T02:49:31.099Z,7.47
2023-06-17T02:51:57.664Z,7.70
2023-06-17T02:54:24.131Z,7.10
2023-06-17T02:56:50.702Z,7.18
2023-06-17T02:59:18.051Z,7.82
2023-06-17T03:01:45.979Z,7.68
2023-06-17T03:04:13.288Z,6.80
2023-06-17T03:06:42.241Z,7.25
2023-06-17T03:09:09.785Z,7.50
2023-06-17T03:11:40.910Z,8.10
2023-06-17T03:14:07.411Z,8.05
2023-06-17T03:16:35.011Z,8.43
2023-06-17T03:19:02.119Z,8.23
2023-06-17T03:21:30.773Z,8.52
2023-06-17T03:24:00.545Z,9.25
2023-06-17T03:26:27.858Z,8.90
2023-06-17T03:28:54.483Z,10.03
2023-06-17T03:31:22.791Z,10.20
2023-06-17T03:33:51.422Z,10.63
2023-06-17T03:36:19.697Z,10.27
2023-06-17T03:38:46.567Z,11.15
2023-06-17T03:41:13.150Z,10.93
2023-06-17T03:43:39.810Z,10.35
2023-06-17T03:46:06.463Z,11.02
2023-06-17T03:48:33.102Z,10.75
2023-06-17T03:51:01.278Z,10.75
2023-06-17T03:53:28.170Z,10.57
2023-06-17T03:55:54.759Z,10.48
2023-06-17T03:58:21.708Z,10.63
2023-06-17T04:00:51.316Z,10.60
2023-06-17T04:03:19.473Z,9.90
2023-06-17T04:05:46.112Z,10.53
2023-06-17T04:08:12.683Z,9.85
2023-06-17T04:10:39.832Z,10.88
2023-06-17T04:13:06.376Z,10.52
2023-06-17T04:15:32.851Z,9.57
2023-06-17T04:17:59.429Z,10.00
2023-06-17T04:20:27.054Z,10.98
2023-06-17T04:22:53.663Z,10.65
2023-06-17T04:25:22.177Z,10.20
2023-06-17T04:27:54.718Z,10.48
2023-06-17T04:30:21.936Z,9.60
2023-06-17T04:32:48.784Z,10.30
2023-06-17T04:35:15.651Z,10.82
2023-06-17T04:37:42.242Z,10.38
2023-06-17T04:40:13.377Z,10.95
2023-06-17T04:42:46.019Z,10.80
2023-06-17T04:45:12.838Z,11.02
2023-06-17T04:47:39.512Z,10.57
2023-06-17T04:50:06.329Z,11.15
2023-06-17T04:52:32.919Z,11.30
2023-06-17T04:54:59.910Z,10.90
2023-06-17T04:57:26.427Z,11.10
2023-06-17T04:59:53.008Z,12.88
2023-06-17T05:02:19.634Z,11.32
2023-06-17T05:04:46.200Z,10.27
2023-06-17T05:07:12.730Z,10.77
2023-06-17T05:09:39.253Z,10.98
2023-06-17T05:12:06.121Z,12.35
2023-06-17T05:14:32.652Z,10.98
2023-06-17T05:16:59.320Z,11.07
2023-06-17T05:19:25.843Z,10.50
2023-06-17T05:21:52.314Z,11.43
2023-06-17T05:24:18.933Z,10.05
2023-06-17T05:26:45.487Z,10.60
2023-06-17T05:29:12.012Z,10.57
2023-06-17T05:31:38.636Z,10.50
2023-06-17T05:34:05.102Z,10.45
2023-06-17T05:36:31.597Z,9.35
2023-06-17T05:38:58.062Z,9.82
2023-06-17T05:41:24.635Z,9.50
2023-06-17T05:43:51.234Z,10.13
2023-06-17T05:46:18.082Z,9.13
2023-06-17T05:48:44.643Z,10.55
2023-06-17T05:51:11.315Z,9.45
2023-06-17T05:53:37.800Z,9.80
2023-06-17T05:56:04.394Z,10.13
2023-06-17T05:58:30.996Z,11.30
2023-06-17T06:00:57.583Z,9.98
2023-06-17T06:03:24.289Z,9.95
2023-06-17T06:05:50.895Z,10.48
2023-06-17T06:08:17.496Z,10.90
2023-06-17T06:10:44.037Z,11.48
2023-06-17T06:13:10.777Z,10.73
2023-06-17T06:15:37.428Z,10.55
2023-06-17T06:18:04.088Z,10.75
2023-06-17T06:20:30.960Z,11.37
2023-06-17T06:22:58.897Z,10.80
2023-06-17T06:25:25.594Z,11.77
2023-06-17T06:27:52.347Z,10.60
2023-06-17T06:30:19.665Z,11.52
2023-06-17T06:32:46.683Z,10.53
2023-06-17T06:35:13.330Z,11.43
2023-06-17T06:37:39.886Z,10.88
2023-06-17T06:40:07.124Z,11.18
2023-06-17T06:42:33.712Z,11.55
2023-06-17T06:45:00.262Z,12.03
2023-06-17T06:47:26.908Z,11.80
2023-06-17T06:49:53.509Z,10.80
2023-06-17T06:52:20.094Z,11.45
2023-06-17T06:54:46.719Z,10.95
2023-06-17T06:57:13.230Z,10.90
2023-06-17T06:59:39.760Z,11.43
2023-06-17T07:02:06.594Z,10.40
2023-06-17T07:04:33.233Z,11.13
2023-06-17T07:06:59.806Z,10.90
2023-06-17T07:09:26.431Z,10.03
2023-06-17T07:11:52.979Z,10.45
2023-06-17T07:14:19.708Z,10.07
2023-06-17T07:16:46.237Z,10.27
2023-06-17T07:19:12.834Z,9.57
2023-06-17T07:21:39.395Z,10.13
2023-06-17T07:24:06.083Z,9.32
2023-06-17T07:26:33.029Z,10.25
2023-06-17T07:29:02.375Z,9.77
2023-06-17T07:31:31.882Z,9.45
2023-06-17T07:34:00.087Z,9.47
2023-06-17T07:36:26.903Z,9.32
2023-06-17T07:38:53.791Z,10.13
2023-06-17T07:41:21.463Z,9.95
2023-06-17T07:43:48.068Z,9.93
2023-06-17T07:46:14.955Z,9.97
2023-06-17T07:48:41.641Z,9.82
2023-06-17T07:51:08.297Z,10.02
2023-06-17T07:53:34.940Z,9.70
2023-06-17T07:56:01.617Z,9.95
2023-06-17T07:58:28.236Z,9.63
2023-06-17T08:00:54.696Z,9.90
2023-06-17T08:03:22.430Z,11.25
2023-06-17T08:05:49.194Z,10.52
2023-06-17T08:08:15.686Z,11.00
2023-06-17T08:10:42.240Z,10.10
2023-06-17T08:13:09.065Z,10.93
2023-06-17T08:15:36.494Z,10.73
2023-06-17T08:18:03.201Z,10.18
2023-06-17T08:20:29.812Z,10.43
2023-06-17T08:22:56.340Z,10.60
2023-06-17T08:25:23.240Z,10.45
2023-06-17T08:27:51.949Z,11.02
2023-06-17T08:30:19.080Z,9.90
2023-06-17T08:32:46.036Z,10.13
2023-06-17T08:35:12.690Z,10.70
2023-06-17T08:37:39.423Z,10.63
2023-06-17T08:40:07.032Z,10.65
2023-06-17T08:42:33.980Z,10.73
2023-06-17T08:45:01.493Z,10.20
2023-06-17T08:47:28.469Z,10.63
2023-06-17T08:49:57.088Z,10.32
2023-06-17T08:52:24.906Z,9.50
2023-06-17T08:54:51.904Z,10.10
2023-06-17T08:57:18.950Z,10.73
2023-06-17T08:59:46.112Z,10.50
2023-06-17T09:02:12.969Z,9.77
2023-06-17T09:04:41.079Z,10.60
2023-06-17T09:07:11.028Z,11.05
2023-06-17T09:09:37.907Z,10.55
2023-06-17T09:12:08.180Z,10.97
2023-06-17T09:14:34.999Z,10.75
2023-06-17T09:17:04.750Z,10.15
2023-06-17T09:19:32.707Z,11.25
2023-06-17T09:22:07.907Z,11.05
2023-06-17T09:24:34.754Z,10.83
2023-06-17T09:27:02.727Z,10.77
2023-06-17T09:29:31.283Z,10.38
2023-06-17T09:31:59.245Z,10.63
2023-06-17T09:34:26.480Z,10.90
2023-06-17T09:36:54.264Z,10.17
2023-06-17T09:39:28.597Z,10.77
2023-06-17T09:41:55.690Z,10.32
2023-06-17T09:44:23.663Z,10.38
2023-06-17T09:46:52.328Z,10.80
2023-06-17T09:49:24.504Z,10.80
2023-06-17T09:51:53.025Z,10.65
2023-06-17T09:54:21.060Z,11.02
2023-06-17T09:56:47.869Z,10.65
2023-06-17T09:59:15.804Z,11.30
2023-06-17T10:01:42.364Z,10.07
2023-06-17T10:04:08.964Z,10.20
2023-06-17T10:06:36.916Z,11.65
2023-06-17T10:09:07.473Z,10.25
2023-06-17T10:11:35.181Z,10.63
2023-06-17T10:14:07.796Z,9.80
2023-06-17T10:16:35.441Z,10.27
2023-06-17T10:19:04.617Z,10.02
2023-06-17T10:21:31.743Z,11.07
2023-06-17T10:24:01.750Z,9.95
2023-06-17T10:26:32.378Z,11.03
2023-06-17T10:29:01.934Z,10.73
2023-06-17T10:31:32.376Z,9.27
2023-06-17T10:34:01.641Z,9.82
2023-06-17T10:36:28.564Z,10.60
2023-06-17T10:38:59.334Z,10.40
2023-06-17T10:41:41.218Z,10.05
2023-06-17T10:44:20.059Z,10.60
2023-06-17T10:46:47.643Z,10.50
2023-06-17T10:49:18.238Z,9.82
2023-06-17T10:51:57.961Z,10.63
2023-06-17T10:54:28.853Z,10.10
2023-06-17T10:56:55.876Z,10.13
2023-06-17T10:59:26.952Z,10.02
2023-06-17T11:01:54.051Z,10.20
2023-06-17T11:04:21.074Z,10.70
2023-06-17T11:06:47.653Z,9.82
2023-06-17T11:09:14.782Z,10.70
2023-06-17T11:11:42.629Z,10.82
2023-06-17T11:14:09.262Z,10.98
2023-06-17T11:16:36.019Z,10.40
2023-06-17T11:19:02.647Z,11.00
2023-06-17T11:21:29.326Z,11.40
2023-06-17T11:23:56.401Z,10.32
2023-06-17T11:26:25.436Z,11.93
2023-06-17T11:28:52.927Z,10.03
2023-06-17T11:31:20.091Z,10.73
2023-06-17T11:33:48.759Z,12.07
2023-06-17T11:36:15.426Z,11.15
2023-06-17T11:38:43.903Z,10.90
2023-06-17T11:41:10.535Z,10.33
2023-06-17T11:43:37.101Z,14.40
2023-06-17T11:46:04.051Z,10.85
2023-06-17T11:48:31.087Z,11.25
2023-06-17T11:51:00.550Z,12.07
2023-06-17T11:53:30.353Z,10.50
2023-06-17T11:56:01.346Z,10.23
2023-06-17T11:58:28.701Z,11.82
2023-06-17T12:00:58.992Z,11.13
2023-06-17T12:03:26.137Z,11.23
2023-06-17T12:05:52.757Z,11.77
2023-06-17T12:08:19.290Z,11.93
2023-06-17T12:10:45.814Z,11.65
2023-06-17T12:13:13.042Z,11.13
2023-06-17T12:15:40.012Z,11.25
2023-06-17T12:18:11.507Z,11.63
2023-06-17T12:20:38.211Z,10.73
2023-06-17T12:23:05.171Z,11.00
2023-06-17T12:25:38.133Z,10.48
2023-06-17T12:28:04.804Z,10.68
2023-06-17T12:30:34.451Z,10.60
2023-06-17T12:33:01.281Z,10.65
2023-06-17T12:35:28.644Z,11.55
2023-06-17T12:37:56.447Z,10.93
2023-06-17T12:40:23.118Z,11.02
2023-06-17T12:42:49.762Z,10.73
2023-06-17T12:45:16.298Z,10.70
2023-06-17T12:47:42.812Z,11.15
2023-06-17T12:50:10.404Z,11.27
2023-06-17T12:52:37.608Z,11.30
2023-06-17T12:55:06.153Z,11.10
2023-06-17T12:57:33.063Z,11.48
2023-06-17T13:00:01.388Z,11.95
2023-06-17T13:02:28.166Z,11.30
2023-06-17T13:04:55.297Z,11.50
2023-06-17T13:07:22.243Z,11.53
2023-06-17T13:09:48.929Z,11.70
2023-06-17T13:12:15.693Z,13.38
2023-06-17T13:14:42.591Z,11.32
2023-06-17T13:17:09.335Z,11.02
2023-06-17T13:19:36.067Z,10.80
2023-06-17T13:22:02.674Z,11.70
2023-06-17T13:24:29.281Z,11.80
2023-06-17T13:26:56.036Z,10.95
2023-06-17T13:29:24.310Z,10.65
2023-06-17T13:31:51.472Z,11.90
2023-06-17T13:34:19.238Z,11.55
2023-06-17T13:36:47.595Z,12.95
2023-06-17T13:39:15.147Z,12.23
2023-06-17T13:41:42.193Z,11.75
2023-06-17T13:44:09.812Z,11.47
2023-06-17T13:46:36.592Z,11.77
2023-06-17T13:49:04.286Z,13.48
2023-06-17T13:51:30.845Z,11.20
2023-06-17T13:53:57.800Z,11.65
2023-06-17T13:56:24.705Z,10.70
2023-06-17T13:58:51.753Z,11.05
2023-06-17T14:01:18.267Z,12.57
2023-06-17T14:03:49.131Z,11.02
2023-06-17T14:06:15.842Z,11.57
2023-06-17T14:08:42.500Z,11.17
2023-06-17T14:11:09.183Z,10.98
2023-06-17T14:13:35.758Z,10.90
2023-06-17T14:16:02.531Z,10.70
2023-06-17T14:18:29.088Z,11.07
2023-06-17T14:20:55.683Z,11.70
2023-06-17T14:23:22.310Z,10.80
2023-06-17T14:25:48.902Z,12.02
2023-06-17T14:28:16.092Z,10.50
2023-06-17T14:30:42.663Z,11.15
2023-06-17T14:33:09.568Z,11.20
2023-06-17T14:35:36.200Z,10.90
2023-06-17T14:38:02.826Z,11.00
2023-06-17T14:40:29.548Z,10.50
2023-06-17T14:42:56.197Z,11.57
2023-06-17T14:45:22.835Z,10.97
2023-06-17T14:47:49.460Z,11.50
2023-06-17T14:50:16.114Z,11.95
2023-06-17T14:52:48.369Z,11.82
2023-06-17T14:55:16.422Z,11.20
2023-06-17T14:57:42.905Z,9.97
2023-06-17T15:00:09.679Z,10.85
2023-06-17T15:02:53.671Z,10.85
2023-06-17T15:05:20.397Z,11.32
2023-06-17T15:07:47.740Z,10.95
2023-06-17T15:10:14.350Z,10.60
2023-06-17T15:12:43.321Z,11.20
2023-06-17T15:15:11.909Z,11.00
2023-06-17T15:17:38.882Z,11.10
2023-06-17T15:20:06.582Z,12.93
2023-06-17T15:22:33.212Z,11.03
2023-06-17T15:24:59.841Z,11.43
2023-06-17T15:27:26.317Z,10.95
2023-06-17T15:29:52.865Z,12.20
2023-06-17T15:32:22.919Z,11.57
2023-06-17T15:34:49.706Z,10.97
2023-06-17T15:37:16.382Z,11.20
2023-06-17T15:39:42.927Z,11.23
2023-06-17T15:42:09.560Z,11.13
2023-06-17T15:44:36.138Z,11.30
2023-06-17T15:47:02.788Z,11.30
2023-06-17T15:49:29.436Z,11.27
2023-06-17T15:51:56.010Z,10.52
2023-06-17T15:54:26.660Z,11.38
2023-06-17T15:56:53.273Z,11.05
2023-06-17T15:59:20.340Z,11.60
2023-06-17T16:01:47.201Z,9.95
2023-06-17T16:04:33.736Z,10.27
2023-06-17T16:07:01.144Z,10.57
2023-06-17T16:09:30.664Z,10.23
2023-06-17T16:11:57.172Z,9.93
2023-06-17T16:14:23.701Z,9.98
2023-06-17T16:16:50.145Z,9.90
2023-06-17T16:19:17.208Z,10.38
2023-06-17T16:21:43.950Z,10.80
2023-06-17T16:24:12.026Z,10.30
2023-06-17T16:26:38.724Z,11.60
2023-06-17T16:29:05.352Z,10.55
2023-06-17T16:31:32.078Z,10.05
2023-06-17T16:33:59.076Z,9.98
2023-06-17T16:36:26.647Z,10.13
2023-06-17T16:38:54.896Z,10.50
2023-06-17T16:41:21.649Z,11.00
2023-06-17T16:43:48.304Z,11.00
2023-06-17T16:46:15.793Z,10.52
2023-06-17T16:48:42.663Z,10.50
2023-06-17T16:51:09.308Z,9.60
2023-06-17T16:53:35.813Z,9.88
2023-06-17T16:56:02.535Z,10.85
2023-06-17T16:58:29.750Z,9.82
2023-06-17T17:00:56.333Z,11.80
2023-06-17T17:03:23.016Z,9.68
2023-06-17T17:05:49.586Z,9.93
2023-06-17T17:08:16.800Z,9.70
2023-06-17T17:10:43.539Z,11.98
2023-06-17T17:13:10.334Z,10.27
2023-06-17T17:15:37.466Z,10.02
2023-06-17T17:18:05.153Z,10.68
2023-06-17T17:20:32.689Z,10.02
2023-06-17T17:23:00.639Z,10.05
2023-06-17T17:25:27.266Z,11.83
2023-06-17T17:27:53.807Z,10.52
2023-06-17T17:30:21.212Z,10.35
2023-06-17T17:32:48.652Z,9.70
2023-06-17T17:35:15.262Z,10.82
2023-06-17T17:37:42.559Z,9.80
2023-06-17T17:40:09.348Z,9.95
2023-06-17T17:42:36.192Z,10.13
2023-06-17T17:45:02.783Z,10.52
2023-06-17T17:47:29.360Z,10.40
2023-06-17T17:49:56.060Z,10.17
2023-06-17T17:52:22.948Z,9.82
2023-06-17T17:55:01.033Z,10.88
2023-06-17T17:57:28.891Z,10.55
2023-06-17T17:59:55.522Z,10.45
2023-06-17T18:02:22.124Z,10.40
2023-06-17T18:04:48.654Z,9.95
2023-06-17T18:07:15.240Z,10.40
2023-06-17T18:09:41.875Z,10.07
2023-06-17T18:12:08.470Z,10.05
2023-06-17T18:14:35.172Z,10.73
2023-06-17T18:17:03.416Z,10.43
2023-06-17T18:19:30.368Z,9.93
2023-06-17T18:21:56.912Z,10.70
2023-06-17T18:24:23.599Z,10.05
2023-06-17T18:26:50.199Z,10.50
2023-06-17T18:29:16.921Z,10.00
2023-06-17T18:31:44.102Z,10.32
2023-06-17T18:34:10.710Z,9.90
2023-06-17T18:36:37.220Z,10.05
2023-06-17T18:39:03.931Z,10.00
2023-06-17T18:41:31.985Z,9.90
2023-06-17T18:44:00.659Z,10.40
2023-06-17T18:46:27.233Z,10.27
2023-06-17T18:48:54.050Z,9.50
2023-06-17T18:51:20.588Z,9.90
2023-06-17T18:53:47.193Z,10.10
2023-06-17T18:56:13.754Z,9.80
2023-06-17T18:58:40.670Z,9.82
2023-06-17T19:01:07.179Z,9.80
2023-06-17T19:03:35.530Z,9.17
2023-06-17T19:06:02.155Z,9.65
2023-06-17T19:08:28.703Z,10.07
2023-06-17T19:10:55.338Z,9.48
2023-06-17T19:13:21.832Z,10.13
2023-06-17T19:15:48.370Z,9.63
2023-06-17T19:18:15.075Z,10.27
2023-06-17T19:20:42.747Z,9.80
2023-06-17T19:23:10.033Z,10.23
2023-06-17T19:25:36.590Z,10.63
2023-06-17T19:28:03.855Z,9.00
2023-06-17T19:30:30.589Z,9.77
2023-06-17T19:32:57.167Z,9.60
2023-06-17T19:35:23.884Z,9.20
2023-06-17T19:37:50.394Z,9.95
2023-06-17T19:40:16.948Z,10.07
2023-06-17T19:42:43.589Z,9.45
2023-06-17T19:45:10.965Z,10.40
2023-06-17T19:47:37.635Z,9.32
2023-06-17T19:50:04.439Z,9.40
2023-06-17T19:52:31.196Z,9.63
2023-06-17T19:54:57.791Z,9.95
2023-06-17T19:57:24.368Z,9.38
2023-06-17T19:59:51.886Z,9.95
2023-06-17T20:02:20.448Z,9.43
2023-06-17T20:04:47.283Z,9.37
2023-06-17T20:07:13.824Z,9.35
2023-06-17T20:09:40.359Z,10.02
2023-06-17T20:12:07.269Z,17.98
2023-06-17T20:14:33.940Z,16.17
2023-06-17T20:17:00.621Z,18.80
2023-06-17T20:19:27.198Z,17.63
2023-06-17T20:21:53.731Z,15.77
2023-06-17T20:24:20.606Z,14.77
2023-06-17T20:26:47.248Z,12.15
2023-06-17T20:29:13.866Z,10.37
2023-06-17T20:31:40.549Z,10.50
2023-06-17T20:34:07.163Z,10.32
2023-06-17T20:36:33.897Z,9.55
2023-06-17T20:39:01.109Z,9.25
2023-06-17T20:41:29.911Z,9.33
2023-06-17T20:43:56.488Z,9.73
2023-06-17T20:46:23.342Z,9.77
2023-06-17T20:48:50.073Z,9.60
2023-06-17T20:51:16.680Z,8.88
2023-06-17T20:53:43.191Z,9.33
2023-06-17T20:56:09.790Z,9.18
2023-06-17T20:58:36.308Z,9.30
2023-06-17T21:01:04.476Z,8.82
2023-06-17T21:03:31.778Z,10.30
2023-06-17T21:05:58.617Z,9.97
2023-06-17T21:08:25.516Z,10.45
2023-06-17T21:10:52.260Z,8.80
2023-06-17T21:13:18.826Z,9.05
2023-06-17T21:15:45.660Z,9.32
2023-06-17T21:18:12.346Z,9.83
2023-06-17T21:20:38.908Z,9.77
2023-06-17T21:23:05.593Z,9.60
2023-06-17T21:25:32.248Z,9.43
2023-06-17T21:27:58.847Z,9.50
2023-06-17T21:30:25.529Z,9.07
2023-06-17T21:32:52.268Z,9.05
2023-06-17T21:35:18.881Z,9.18
2023-06-17T21:37:45.581Z,9.10
2023-06-17T21:40:12.580Z,9.32
2023-06-17T21:42:40.022Z,9.47
2023-06-17T21:45:07.024Z,9.57
2023-06-17T21:47:33.577Z,9.95
2023-06-17T21:50:00.258Z,10.32
2023-06-17T21:52:26.790Z,9.90
2023-06-17T21:54:53.377Z,10.27
2023-06-17T21:57:20.459Z,10.02
2023-06-17T21:59:46.972Z,9.57
2023-06-17T22:02:13.781Z,9.50
2023-06-17T22:04:40.349Z,9.85
2023-06-17T22:07:06.840Z,9.73
2023-06-17T22:09:33.456Z,9.80
2023-06-17T22:12:00.030Z,9.85
2023-06-17T22:14:26.796Z,9.88
2023-06-17T22:16:53.467Z,9.75
2023-06-17T22:19:20.005Z,9.63
2023-06-17T22:21:46.501Z,9.52
2023-06-17T22:24:14.503Z,10.10
2023-06-17T22:26:41.322Z,10.75
2023-06-17T22:29:08.638Z,10.70
2023-06-17T22:31:35.135Z,9.87
2023-06-17T22:34:01.663Z,9.90
2023-06-17T22:36:28.213Z,9.98
2023-06-17T22:38:54.818Z,10.77
2023-06-17T22:41:21.402Z,9.80
2023-06-17T22:43:47.928Z,10.90
2023-06-17T22:46:14.700Z,10.07
2023-06-17T22:48:41.260Z,9.98
2023-06-17T22:51:08.015Z,10.73
2023-06-17T22:53:35.398Z,10.60
2023-06-17T22:56:02.167Z,10.40
2023-06-17T22:58:28.725Z,10.57
2023-06-17T23:00:56.384Z,10.50
2023-06-17T23:03:24.304Z,10.40
2023-06-17T23:05:50.841Z,9.75
2023-06-17T23:08:17.391Z,10.60
2023-06-17T23:10:43.855Z,11.50
2023-06-17T23:13:10.599Z,10.68
2023-06-17T23:15:39.240Z,10.10
2023-06-17T23:18:06.174Z,10.70
2023-06-17T23:20:32.791Z,9.60
2023-06-17T23:22:59.307Z,10.38
2023-06-17T23:25:27.424Z,10.68
2023-06-17T23:27:54.533Z,10.25
2023-06-17T23:30:21.337Z,10.18
2023-06-17T23:32:48.169Z,10.10
2023-06-17T23:35:14.696Z,10.80
2023-06-17T23:37:41.582Z,10.55
2023-06-17T23:40:09.002Z,10.57
2023-06-17T23:42:35.686Z,11.25
2023-06-17T23:45:02.269Z,10.10
2023-06-17T23:47:28.825Z,9.93
2023-06-17T23:49:55.408Z,9.68
2023-06-17T23:52:22.045Z,10.35
2023-06-17T23:54:48.598Z,10.48
2023-06-17T23:57:15.177Z,10.20
2023-06-17T23:59:41.688Z,10.55
